Allbright, Missouri
Current Conditions -  °F | °C
As of 12:35 PM on Thursday 29 Jan 2015 (Local Time) from KFAM Reporting Station
Overcast Overcast  
Wind Chill: -1°   Ceiling: 2300
Heat Index:   Visibility: 10mi
Dew Point: -2°   Wind: 16mph
Humidity: 65%   Direction: 330°NNW
Pressure: 30.2"   Gusts: 23mph
Location:  37.4061°N, 90.1985°W
Report Text: KFAM 291835Z AUTO 33014G20KT 10SM OVC023 04/M02 A3020 RMK AO1
Loading
Personal Weather Stations






























Interactive Weather Map New forecast layout! Learn more

10-Day Weather Forecast

Advertisements
Track Severe Weather on mobile